Hardburly, Kentucky
Current Conditions -  °F | °C
As of 11:53 PM on Friday 19 Dec 2014 (Local Time) from KJKL Reporting Station
Clear Clear  
Wind Chill: 27°   Ceiling: Unl
Heat Index: 27°   Visibility: 9mi
Dew Point: 21°   Wind: 3mph
Humidity: 78%   Direction: 50°NE
Pressure: 30.21"   Gusts: NA
Location:  37.3°N, 83.12°W
Report Text: KJKL 200453Z AUTO 05003KT 9SM CLR M03/M06 A3021 RMK AO2 SLP241 T10281061 400331028
Loading
Personal Weather Stations






























Interactive Weather Map New forecast layout! Learn more

10-Day Weather Forecast

Advertisements
Track Severe Weather on mobile